Time;durP1;ratioP1;P1;durP2;ratioP2;P2;SDS_P1;SDS_P2;PMS_P1;PMS_P2;Temp;Humidity;BMP_temperature;BMP_pressure;BME280_temperature;BME280_humidity;BME280_pressure;Samples;Min_cycle;Max_cycle;Signal;HPM_P1;HPM_P2
2021/03/22 00:01:21;;;;;;;;;;;6.20;90.70;;;;;;5039570;28;19940;-84
2021/03/22 00:03:46;;;;;;;;;;;6.10;90.60;;;;;;5054269;28;20373;-85
2021/03/22 00:06:12;;;;;;;;;;;6.20;90.90;;;;;;5036553;28;20280;-83
2021/03/22 00:08:37;;;;;;;;;;;6.10;91.00;;;;;;5052974;28;19908;-84
2021/03/22 00:11:03;;;;;;;;;;;6.10;91.10;;;;;;5035708;28;19909;-84
2021/03/22 00:13:29;;;;;;;;;;;6.10;91.20;;;;;;5052885;28;19908;-84
2021/03/22 00:15:56;;;;;;;;;;;6.00;91.30;;;;;;5054494;28;19909;-84
2021/03/22 00:18:24;;;;;;;;;;;6.10;91.30;;;;;;5054675;28;19904;-84
2021/03/22 00:20:50;;;;;;;;;;;6.10;91.30;;;;;;5035951;28;19913;-84
2021/03/22 00:23:15;;;;;;;;;;;6.10;91.30;;;;;;5036356;28;19955;-84
2021/03/22 00:25:41;;;;;;;;;;;6.10;91.30;;;;;;5054399;28;19912;-84
2021/03/22 00:28:07;;;;;;;;;;;6.10;91.30;;;;;;5053200;28;20327;-84
2021/03/22 00:30:34;;;;;;;;;;;6.10;91.30;;;;;;5035803;28;19904;-84
2021/03/22 00:33:00;;;;;;;;;;;6.10;91.50;;;;;;5036377;28;19905;-84
2021/03/22 00:35:26;;;;;;;;;;;6.20;91.50;;;;;;5036335;28;19905;-84
2021/03/22 00:37:52;;;;;;;;;;;6.10;91.50;;;;;;5054487;28;19909;-84
2021/03/22 00:40:19;;;;;;;;;;;6.10;91.50;;;;;;5051975;28;20011;-84
2021/03/22 00:42:44;;;;;;;;;;;6.10;91.70;;;;;;5036046;28;20354;-83
2021/03/22 00:45:10;;;;;;;;;;;6.10;91.80;;;;;;5054137;28;19911;-84
2021/03/22 00:47:36;;;;;;;;;;;6.00;91.80;;;;;;5054416;28;19905;-84
2021/03/22 00:50:03;;;;;;;;;;;6.10;91.80;;;;;;5035963;28;19951;-85
2021/03/22 00:52:28;;;;;;;;;;;6.00;92.00;;;;;;5037485;28;19927;-84
2021/03/22 00:54:54;;;;;;;;;;;5.90;92.10;;;;;;5036956;28;19905;-84
2021/03/22 00:57:19;;;;;;;;;;;6.00;92.10;;;;;;5037661;28;19905;-84
2021/03/22 00:59:45;;;;;;;;;;;5.90;92.30;;;;;;5036275;28;19905;-84
2021/03/22 01:02:10;;;;;;;;;;;5.80;92.50;;;;;;5039385;28;20431;-84
2021/03/22 01:04:36;;;;;;;;;;;5.90;92.60;;;;;;5041654;28;20395;-84
2021/03/22 01:07:02;;;;;;;;;;;5.80;92.80;;;;;;5041004;28;19905;-84
2021/03/22 01:09:27;;;;;;;;;;;5.80;92.70;;;;;;5059211;28;19940;-83
2021/03/22 01:11:53;;;;;;;;;;;5.70;93.00;;;;;;5058627;28;20293;-84
2021/03/22 01:14:19;;;;;;;;;;;5.60;93.20;;;;;;5040808;28;19962;-85
2021/03/22 01:16:44;;;;;;;;;;;5.60;93.10;;;;;;5040144;28;19905;-84
2021/03/22 01:19:12;;;;;;;;;;;5.60;93.30;;;;;;5039689;28;19905;-84
2021/03/22 01:21:41;;;;;;;;;;;5.60;93.40;;;;;;5040476;28;19917;-84
2021/03/22 01:24:07;;;;;;;;;;;5.60;93.40;;;;;;5040573;28;19995;-84
2021/03/22 01:26:34;;;;;;;;;;;5.60;93.40;;;;;;5058860;28;19905;-84
2021/03/22 01:29:00;;;;;;;;;;;5.60;93.50;;;;;;5039693;28;20002;-84
2021/03/22 01:31:26;;;;;;;;;;;5.70;93.50;;;;;;5040122;28;19912;-84
2021/03/22 01:33:53;;;;;;;;;;;5.70;93.40;;;;;;5039898;28;19905;-84
2021/03/22 01:36:25;;;;;;;;;;;5.70;93.60;;;;;;5058249;28;19944;-84
2021/03/22 01:38:52;;;;;;;;;;;5.70;93.50;;;;;;5057878;28;19905;-84
2021/03/22 01:41:34;;;;;;;;;;;5.60;93.60;;;;;;5040075;28;20062;-84
2021/03/22 01:44:19;;;;;;;;;;;5.70;93.50;;;;;;5057042;28;19904;-85
2021/03/22 01:46:46;;;;;;;;;;;5.60;93.40;;;;;;5058254;28;19905;-83
2021/03/22 01:49:12;;;;;;;;;;;5.50;93.60;;;;;;5039814;28;19909;-84
2021/03/22 01:51:37;;;;;;;;;;;5.50;93.60;;;;;;5058510;28;19935;-84
2021/03/22 01:54:03;;;;;;;;;;;5.50;93.90;;;;;;5057373;28;20300;-84
2021/03/22 01:56:31;;;;;;;;;;;5.40;93.90;;;;;;5040774;28;19909;-84
2021/03/22 01:58:59;;;;;;;;;;;5.40;94.00;;;;;;5057792;28;20332;-84
2021/03/22 02:01:27;;;;;;;;;;;5.40;94.00;;;;;;5058260;28;19904;-84
2021/03/22 02:03:53;;;;;;;;;;;5.40;93.90;;;;;;5040171;28;19948;-84
2021/03/22 02:06:18;;;;;;;;;;;5.40;93.90;;;;;;5039745;28;19904;-85
2021/03/22 02:08:45;;;;;;;;;;;5.40;94.00;;;;;;5057867;28;19919;-84
2021/03/22 02:11:18;;;;;;;;;;;5.40;93.90;;;;;;5057127;28;19916;-83
2021/03/22 02:13:45;;;;;;;;;;;5.50;93.80;;;;;;5038760;28;19904;-85
2021/03/22 02:16:14;;;;;;;;;;;5.50;93.80;;;;;;5039509;28;19905;-84
2021/03/22 02:19:00;;;;;;;;;;;5.60;93.80;;;;;;5057781;28;19904;-85
2021/03/22 02:21:36;;;;;;;;;;;5.60;93.60;;;;;;5035726;28;20320;-83
2021/03/22 02:24:05;;;;;;;;;;;5.50;93.60;;;;;;5057571;28;19931;-85
2021/03/22 02:26:39;;;;;;;;;;;5.50;93.60;;;;;;5039440;28;19911;-84
2021/03/22 02:29:17;;;;;;;;;;;5.40;93.70;;;;;;5060064;28;19904;-84
2021/03/22 02:31:50;;;;;;;;;;;5.50;93.50;;;;;;5041796;28;19968;-84
2021/03/22 02:34:21;;;;;;;;;;;5.50;93.80;;;;;;5060055;28;19955;-84
2021/03/22 02:37:09;;;;;;;;;;;5.50;93.80;;;;;;5042328;28;19905;-84
2021/03/22 02:39:44;;;;;;;;;;;5.40;93.90;;;;;;5041210;28;19905;-84
2021/03/22 02:42:10;;;;;;;;;;;5.50;93.70;;;;;;5060061;28;19909;-85
2021/03/22 02:44:37;;;;;;;;;;;5.50;93.80;;;;;;5042125;28;19911;-84
2021/03/22 02:47:04;;;;;;;;;;;5.50;93.80;;;;;;5041959;28;20026;-84
2021/03/22 02:49:33;;;;;;;;;;;5.40;94.00;;;;;;5041854;28;19991;-85
2021/03/22 02:52:09;;;;;;;;;;;5.50;94.20;;;;;;5041694;28;19909;-85
2021/03/22 02:54:38;;;;;;;;;;;5.50;94.10;;;;;;5060147;28;19967;-84
2021/03/22 02:57:09;;;;;;;;;;;5.50;94.20;;;;;;5060892;28;19905;-84
2021/03/22 02:59:45;;;;;;;;;;;5.40;94.30;;;;;;5060274;28;19909;-84
2021/03/22 03:02:12;;;;;;;;;;;5.40;94.60;;;;;;5042624;28;19905;-84
2021/03/22 03:04:38;;;;;;;;;;;5.50;94.40;;;;;;5041860;28;19908;-84
2021/03/22 03:07:08;;;;;;;;;;;5.40;94.70;;;;;;5059789;28;20258;-84
2021/03/22 03:09:36;;;;;;;;;;;5.30;95.00;;;;;;5059357;28;20372;-83
2021/03/22 03:12:28;;;;;;;;;;;5.30;94.90;;;;;;5043757;28;19916;-85
2021/03/22 03:14:55;;;;;;;;;;;5.30;95.00;;;;;;5046297;28;19904;-85
2021/03/22 03:17:21;;;;;;;;;;;5.30;95.40;;;;;;5065393;28;19905;-84
2021/03/22 03:19:51;;;;;;;;;;;5.30;95.20;;;;;;5062861;28;19909;-84
2021/03/22 03:22:17;;;;;;;;;;;5.30;95.30;;;;;;5056500;28;19920;-84
2021/03/22 03:24:43;;;;;;;;;;;5.30;95.40;;;;;;5056051;28;19905;-84
2021/03/22 03:27:09;;;;;;;;;;;5.30;95.50;;;;;;5038869;28;19925;-84
2021/03/22 03:29:35;;;;;;;;;;;5.20;95.70;;;;;;5056947;28;19955;-84
2021/03/22 03:32:01;;;;;;;;;;;5.20;95.70;;;;;;5056917;28;19924;-84
2021/03/22 03:34:26;;;;;;;;;;;5.20;95.90;;;;;;5038857;28;19935;-84
2021/03/22 03:36:52;;;;;;;;;;;5.20;95.70;;;;;;5038453;28;20319;-84
2021/03/22 03:39:17;;;;;;;;;;;5.10;95.70;;;;;;5037992;28;20403;-84
2021/03/22 03:41:43;;;;;;;;;;;5.10;95.80;;;;;;5037961;28;20308;-84
2021/03/22 03:44:10;;;;;;;;;;;5.20;95.70;;;;;;5056330;28;19905;-84
2021/03/22 03:46:37;;;;;;;;;;;5.10;95.70;;;;;;5056262;28;20300;-84
2021/03/22 03:49:02;;;;;;;;;;;5.20;95.70;;;;;;5037810;28;19909;-84
2021/03/22 03:51:28;;;;;;;;;;;5.20;95.70;;;;;;5056011;28;19942;-84
2021/03/22 03:53:53;;;;;;;;;;;5.10;95.50;;;;;;5038455;28;19904;-84
2021/03/22 03:56:19;;;;;;;;;;;5.20;95.70;;;;;;5055987;28;20347;-84
2021/03/22 03:58:45;;;;;;;;;;;5.20;95.60;;;;;;5056373;28;20423;-84
2021/03/22 04:01:10;;;;;;;;;;;5.20;95.70;;;;;;5037594;28;19905;-84
2021/03/22 04:03:39;;;;;;;;;;;5.10;95.70;;;;;;5035010;28;20003;-84
2021/03/22 04:06:08;;;;;;;;;;;5.10;95.70;;;;;;5052752;28;19905;-84
2021/03/22 04:08:35;;;;;;;;;;;5.10;95.80;;;;;;5034810;28;19947;-84
2021/03/22 04:11:02;;;;;;;;;;;5.10;95.60;;;;;;5034104;28;19905;-84
2021/03/22 04:13:28;;;;;;;;;;;5.10;95.80;;;;;;5034682;28;19905;-84
2021/03/22 04:15:54;;;;;;;;;;;5.10;95.70;;;;;;5052887;28;19911;-84
2021/03/22 04:18:20;;;;;;;;;;;5.00;95.70;;;;;;5058579;28;19943;-83
2021/03/22 04:20:45;;;;;;;;;;;5.00;95.90;;;;;;5055926;28;20369;-83
2021/03/22 04:23:11;;;;;;;;;;;4.90;96.10;;;;;;5055717;28;20307;-84
2021/03/22 04:25:36;;;;;;;;;;;5.00;96.10;;;;;;5054100;28;19913;-83
2021/03/22 04:28:02;;;;;;;;;;;5.00;96.00;;;;;;5058238;28;19905;-84
2021/03/22 04:30:27;;;;;;;;;;;5.00;96.00;;;;;;5039358;28;19995;-84
2021/03/22 04:32:53;;;;;;;;;;;5.10;95.90;;;;;;5039911;28;19935;-83
2021/03/22 04:35:23;;;;;;;;;;;5.00;96.00;;;;;;5040204;28;19905;-84
2021/03/22 04:37:49;;;;;;;;;;;5.10;96.10;;;;;;5061486;28;19911;-83
2021/03/22 04:40:16;;;;;;;;;;;5.10;96.10;;;;;;5043261;28;19959;-84
2021/03/22 04:42:41;;;;;;;;;;;5.10;96.10;;;;;;5043739;28;19919;-84
2021/03/22 04:45:07;;;;;;;;;;;5.10;96.10;;;;;;5061552;28;19909;-83
2021/03/22 04:47:33;;;;;;;;;;;5.10;96.30;;;;;;5062173;28;20003;-83
2021/03/22 04:49:58;;;;;;;;;;;5.10;96.20;;;;;;5060998;28;19908;-84
2021/03/22 04:52:24;;;;;;;;;;;5.00;96.60;;;;;;5043621;28;20412;-84
2021/03/22 04:54:49;;;;;;;;;;;5.00;97.00;;;;;;5062071;28;20009;-84
2021/03/22 04:57:24;;;;;;;;;;;4.90;97.00;;;;;;5043812;28;19976;-84
2021/03/22 04:59:49;;;;;;;;;;;5.00;97.10;;;;;;5061382;28;20328;-83
2021/03/22 05:02:15;;;;;;;;;;;5.00;97.20;;;;;;5060814;28;20004;-84
2021/03/22 05:04:40;;;;;;;;;;;5.00;97.60;;;;;;5060087;28;19944;-84
2021/03/22 05:07:06;;;;;;;;;;;4.90;97.50;;;;;;5042442;28;19911;-84
2021/03/22 05:09:31;;;;;;;;;;;4.80;97.80;;;;;;5042221;28;19905;-84
2021/03/22 05:11:57;;;;;;;;;;;4.90;98.00;;;;;;5042092;28;19931;-83
2021/03/22 05:14:22;;;;;;;;;;;4.90;98.00;;;;;;5060225;28;20075;-83
2021/03/22 05:16:48;;;;;;;;;;;5.00;97.90;;;;;;5059683;28;19967;-84
2021/03/22 05:19:13;;;;;;;;;;;5.10;97.80;;;;;;5042171;28;20280;-84
2021/03/22 05:21:39;;;;;;;;;;;5.10;97.80;;;;;;5042525;28;19913;-84
2021/03/22 05:24:05;;;;;;;;;;;5.10;97.70;;;;;;5059305;28;19943;-84
2021/03/22 05:26:30;;;;;;;;;;;5.10;97.60;;;;;;5060829;28;19905;-84
2021/03/22 05:28:56;;;;;;;;;;;5.00;97.90;;;;;;5059918;28;19922;-84
2021/03/22 05:31:21;;;;;;;;;;;5.10;97.80;;;;;;5042261;28;19999;-84
2021/03/22 05:33:47;;;;;;;;;;;5.10;97.90;;;;;;5042708;28;19908;-84
2021/03/22 05:36:12;;;;;;;;;;;5.00;97.80;;;;;;5042834;28;20380;-84
2021/03/22 05:38:38;;;;;;;;;;;5.00;97.80;;;;;;5042928;28;19905;-83
2021/03/22 05:41:05;;;;;;;;;;;5.00;97.80;;;;;;5042205;28;19909;-84
2021/03/22 05:43:40;;;;;;;;;;;5.00;97.90;;;;;;5062794;28;19908;-84
2021/03/22 05:46:05;;;;;;;;;;;4.90;97.90;;;;;;5046026;28;19916;-84
2021/03/22 05:49:00;;;;;;;;;;;5.00;97.90;;;;;;5044794;28;19905;-84
2021/03/22 05:51:28;;;;;;;;;;;5.00;98.00;;;;;;5026142;28;20354;-84
2021/03/22 05:53:54;;;;;;;;;;;5.00;97.70;;;;;;5043356;28;19905;-84
2021/03/22 05:56:46;;;;;;;;;;;5.10;97.60;;;;;;5060807;28;20248;-85
2021/03/22 05:59:21;;;;;;;;;;;5.10;97.70;;;;;;5034478;28;19982;-85
2021/03/22 06:01:49;;;;;;;;;;;5.20;97.50;;;;;;5043097;28;19904;-84
2021/03/22 06:04:20;;;;;;;;;;;5.10;97.50;;;;;;5042499;28;19912;-84
2021/03/22 06:06:46;;;;;;;;;;;5.10;97.70;;;;;;5059335;28;19996;-84
2021/03/22 06:09:24;;;;;;;;;;;5.10;97.80;;;;;;5040512;28;19936;-84
2021/03/22 06:11:57;;;;;;;;;;;5.20;97.40;;;;;;5058692;28;19908;-85
2021/03/22 06:14:22;;;;;;;;;;;5.20;97.40;;;;;;5041021;28;19905;-84
2021/03/22 06:16:51;;;;;;;;;;;5.20;97.60;;;;;;5040380;28;19904;-84
2021/03/22 06:19:18;;;;;;;;;;;5.10;97.50;;;;;;5037919;28;19936;-83
2021/03/22 06:21:45;;;;;;;;;;;5.20;97.60;;;;;;5038325;28;19912;-84
2021/03/22 06:24:19;;;;;;;;;;;5.20;97.60;;;;;;5056244;28;19905;-84
2021/03/22 06:26:46;;;;;;;;;;;5.20;97.40;;;;;;5039020;28;19904;-84
2021/03/22 06:29:25;;;;;;;;;;;5.20;97.20;;;;;;5055743;28;19905;-83
2021/03/22 06:31:53;;;;;;;;;;;5.30;97.00;;;;;;5055867;28;20427;-84
2021/03/22 06:34:35;;;;;;;;;;;5.30;97.20;;;;;;5055982;28;20264;-84
2021/03/22 06:37:00;;;;;;;;;;;5.40;97.10;;;;;;5056718;28;19905;-84
2021/03/22 06:39:26;;;;;;;;;;;5.40;97.10;;;;;;5055152;28;19920;-84
2021/03/22 06:41:52;;;;;;;;;;;5.40;97.00;;;;;;5038528;28;19905;-84
2021/03/22 06:44:19;;;;;;;;;;;5.40;96.90;;;;;;5056091;28;19995;-85
2021/03/22 06:46:55;;;;;;;;;;;5.40;97.10;;;;;;5038295;28;20361;-84
2021/03/22 06:49:22;;;;;;;;;;;5.50;97.10;;;;;;5055449;28;20277;-84
2021/03/22 06:51:58;;;;;;;;;;;5.50;97.20;;;;;;5038263;28;20007;-84
2021/03/22 06:54:29;;;;;;;;;;;5.60;97.10;;;;;;5061953;28;19906;-84
2021/03/22 06:57:02;;;;;;;;;;;5.60;97.10;;;;;;5044785;28;19923;-84
2021/03/22 06:59:28;;;;;;;;;;;5.70;97.10;;;;;;5062826;28;19905;-83
2021/03/22 07:01:54;;;;;;;;;;;5.70;97.00;;;;;;5051751;28;20402;-83
2021/03/22 07:04:25;;;;;;;;;;;5.80;97.00;;;;;;5064607;28;19911;-84
2021/03/22 07:07:15;;;;;;;;;;;5.90;96.80;;;;;;5036667;28;19920;-84
2021/03/22 07:09:45;;;;;;;;;;;5.90;96.50;;;;;;5032459;28;19951;-84
2021/03/22 07:12:31;;;;;;;;;;;5.70;96.50;;;;;;5054043;28;19908;-84
2021/03/22 07:15:14;;;;;;;;;;;5.70;96.70;;;;;;5054772;28;19912;-84
2021/03/22 07:17:39;;;;;;;;;;;5.60;96.50;;;;;;5054216;28;19912;-84
2021/03/22 07:20:08;;;;;;;;;;;5.60;96.70;;;;;;5045109;28;19905;-84
2021/03/22 07:22:34;;;;;;;;;;;5.50;96.70;;;;;;5058871;22;19921;-86
2021/03/22 07:25:03;;;;;;;;;;;5.50;96.70;;;;;;5053958;28;19951;-86
2021/03/22 07:27:38;;;;;;;;;;;5.50;96.70;;;;;;5052006;28;20364;-87
2021/03/22 07:30:15;;;;;;;;;;;5.60;96.70;;;;;;5052954;28;20411;-86
2021/03/22 07:32:59;;;;;;;;;;;5.50;96.40;;;;;;5052059;28;20003;-86
2021/03/22 07:35:43;;;;;;;;;;;5.50;96.80;;;;;;5035493;28;20447;-86
2021/03/22 07:38:17;;;;;;;;;;;5.60;96.80;;;;;;5053684;28;19923;-88
2021/03/22 07:40:43;;;;;;;;;;;5.60;96.40;;;;;;5035005;28;20422;-87
2021/03/22 07:43:28;;;;;;;;;;;5.60;96.40;;;;;;5035690;28;19905;-87
2021/03/22 07:46:00;;;;;;;;;;;5.70;96.60;;;;;;5036049;28;19904;-86
2021/03/22 07:48:54;;;;;;;;;;;5.70;96.30;;;;;;5053458;28;20361;-87
2021/03/22 07:51:44;;;;;;;;;;;5.80;96.20;;;;;;5016021;28;20386;-86
2021/03/22 07:54:16;;;;;;;;;;;5.90;95.80;;;;;;5035325;28;19991;-86
2021/03/22 07:56:44;;;;;;;;;;;6.00;95.80;;;;;;5035360;28;20411;-88
2021/03/22 07:59:16;;;;;;;;;;;6.00;95.50;;;;;;5035306;28;20364;-86
2021/03/22 08:01:56;;;;;;;;;;;6.00;95.60;;;;;;5035273;28;19923;-89
2021/03/22 08:04:28;;;;;;;;;;;6.10;95.10;;;;;;5035283;28;19911;-87
2021/03/22 08:07:01;;;;;;;;;;;6.10;95.20;;;;;;5035332;28;19959;-86
2021/03/22 08:09:33;;;;;;;;;;;6.10;95.00;;;;;;5053202;28;19953;-86
2021/03/22 08:12:11;;;;;;;;;;;6.10;95.10;;;;;;5034592;28;20361;-86
2021/03/22 08:14:37;;;;;;;;;;;6.20;94.90;;;;;;5035265;28;19909;-86
2021/03/22 08:17:03;;;;;;;;;;;6.20;94.60;;;;;;5035134;28;19912;-86
2021/03/22 08:19:34;;;;;;;;;;;6.20;94.30;;;;;;5053010;28;19909;-86
2021/03/22 08:22:19;;;;;;;;;;;6.10;94.10;;;;;;5035034;28;19913;-89
2021/03/22 08:24:44;;;;;;;;;;;6.20;94.30;;;;;;5053070;28;19905;-86
2021/03/22 08:27:14;;;;;;;;;;;6.10;94.10;;;;;;5035190;28;19923;-86
2021/03/22 08:29:54;;;;;;;;;;;6.20;94.30;;;;;;5034968;28;19905;-89
2021/03/22 08:32:26;;;;;;;;;;;6.30;94.10;;;;;;5035131;28;19909;-86
2021/03/22 08:34:57;;;;;;;;;;;6.40;93.90;;;;;;5052994;28;19911;-86
2021/03/22 08:37:26;;;;;;;;;;;6.30;93.10;;;;;;5053005;28;19942;-86
2021/03/22 08:39:58;;;;;;;;;;;6.40;93.40;;;;;;5035207;28;19905;-86
2021/03/22 08:42:26;;;;;;;;;;;6.40;93.00;;;;;;5034750;28;19911;-86
2021/03/22 08:44:51;;;;;;;;;;;6.40;92.30;;;;;;5034978;28;19912;-86
2021/03/22 08:47:36;;;;;;;;;;;6.40;92.40;;;;;;5034806;28;19904;-87
2021/03/22 08:50:07;;;;;;;;;;;6.40;91.80;;;;;;5052764;28;19905;-86
2021/03/22 08:52:35;;;;;;;;;;;6.50;92.20;;;;;;5034645;28;19908;-88
2021/03/22 08:55:09;;;;;;;;;;;6.50;92.30;;;;;;5034528;28;20265;-84
2021/03/22 08:57:53;;;;;;;;;;;6.60;91.80;;;;;;5034323;28;19905;-87
2021/03/22 09:00:25;;;;;;;;;;;6.60;91.70;;;;;;5033731;28;20313;-86
2021/03/22 09:02:54;;;;;;;;;;;6.70;91.40;;;;;;5034221;28;19943;-86
2021/03/22 09:05:22;;;;;;;;;;;6.70;91.40;;;;;;5034243;28;19904;-86
2021/03/22 09:07:47;;;;;;;;;;;6.70;91.10;;;;;;5034218;28;20388;-86
2021/03/22 09:10:36;;;;;;;;;;;6.70;91.10;;;;;;5033606;28;19905;-86
2021/03/22 09:13:07;;;;;;;;;;;6.70;91.20;;;;;;5046242;28;19931;-86
2021/03/22 09:15:52;;;;;;;;;;;6.70;91.10;;;;;;5051718;28;19912;-86
2021/03/22 09:18:21;;;;;;;;;;;6.70;90.70;;;;;;5033509;28;19912;-86
2021/03/22 09:20:46;;;;;;;;;;;6.70;90.80;;;;;;5033343;28;19939;-86
2021/03/22 09:23:30;;;;;;;;;;;6.70;91.10;;;;;;5036869;28;19987;-86
2021/03/22 09:25:59;;;;;;;;;;;6.70;91.10;;;;;;5055618;28;19995;-86
2021/03/22 09:28:24;;;;;;;;;;;6.80;91.10;;;;;;5037681;28;20349;-85
2021/03/22 09:31:16;;;;;;;;;;;6.80;91.00;;;;;;5036777;28;19911;-86
2021/03/22 09:34:00;;;;;;;;;;;6.70;90.90;;;;;;5036414;28;19913;-86
2021/03/22 09:36:38;;;;;;;;;;;6.70;90.70;;;;;;5037559;28;20308;-87
2021/03/22 09:39:06;;;;;;;;;;;6.70;90.60;;;;;;5036773;28;19932;-86
2021/03/22 09:42:01;;;;;;;;;;;6.70;90.80;;;;;;5037222;28;19905;-85
2021/03/22 09:44:29;;;;;;;;;;;6.70;91.10;;;;;;5046363;28;19904;-87
2021/03/22 09:47:13;;;;;;;;;;;6.60;91.10;;;;;;5055150;28;19909;-86
2021/03/22 09:49:57;;;;;;;;;;;6.70;91.00;;;;;;5054606;28;20395;-86
2021/03/22 09:52:25;;;;;;;;;;;6.70;90.90;;;;;;5036935;28;19927;-86
2021/03/22 09:54:50;;;;;;;;;;;6.70;90.60;;;;;;5037140;28;19905;-85
2021/03/22 09:57:25;;;;;;;;;;;6.70;90.60;;;;;;5054857;28;20003;-85
2021/03/22 09:59:59;;;;;;;;;;;6.80;90.50;;;;;;5036339;28;19952;-86
2021/03/22 10:02:45;;;;;;;;;;;6.90;90.60;;;;;;5036878;28;19946;-86
2021/03/22 10:05:23;;;;;;;;;;;6.90;90.40;;;;;;5055202;28;19905;-85
2021/03/22 10:08:11;;;;;;;;;;;6.90;89.90;;;;;;5054782;28;19951;-86
2021/03/22 10:10:38;;;;;;;;;;;6.90;90.10;;;;;;5033379;28;19908;-86
2021/03/22 10:13:18;;;;;;;;;;;6.90;89.60;;;;;;5054554;28;20346;-86
2021/03/22 10:16:03;;;;;;;;;;;7.00;88.40;;;;;;5036645;28;19939;-86
2021/03/22 10:18:31;;;;;;;;;;;7.00;87.80;;;;;;5036803;28;19923;-86
2021/03/22 10:21:06;;;;;;;;;;;7.10;87.00;;;;;;5035878;28;19909;-86
2021/03/22 10:23:35;;;;;;;;;;;7.00;85.00;;;;;;5036641;28;19927;-86
2021/03/22 10:26:13;;;;;;;;;;;7.10;86.10;;;;;;5036696;28;19908;-86
2021/03/22 10:28:41;;;;;;;;;;;7.10;86.00;;;;;;5036537;28;19955;-86
2021/03/22 10:31:24;;;;;;;;;;;7.10;86.20;;;;;;5052365;28;20003;-87
2021/03/22 10:33:57;;;;;;;;;;;7.10;86.80;;;;;;5036000;28;19912;-85
2021/03/22 10:36:30;;;;;;;;;;;7.10;87.80;;;;;;5036451;28;19911;-86
2021/03/22 10:38:56;;;;;;;;;;;7.10;87.20;;;;;;5035702;28;19905;-86
2021/03/22 10:41:27;;;;;;;;;;;7.10;87.60;;;;;;5054157;28;19905;-86
2021/03/22 10:44:05;;;;;;;;;;;7.20;87.00;;;;;;5036077;28;19904;-87
2021/03/22 10:46:31;;;;;;;;;;;7.20;86.10;;;;;;5036165;28;20361;-86
2021/03/22 10:49:05;;;;;;;;;;;7.20;85.00;;;;;;5035564;28;20415;-87
2021/03/22 10:51:51;;;;;;;;;;;7.20;85.80;;;;;;5035926;28;19908;-86
2021/03/22 10:54:18;;;;;;;;;;;7.30;85.30;;;;;;5053991;28;20308;-86
2021/03/22 10:56:55;;;;;;;;;;;7.30;85.10;;;;;;5035815;28;19904;-86
2021/03/22 10:59:20;;;;;;;;;;;7.40;84.70;;;;;;5035637;28;19962;-86
2021/03/22 11:01:47;;;;;;;;;;;7.50;84.30;;;;;;5035846;28;20011;-86
2021/03/22 11:04:16;;;;;;;;;;;7.40;84.20;;;;;;5035993;28;20345;-86
2021/03/22 11:06:44;;;;;;;;;;;7.50;84.60;;;;;;5053837;28;19923;-86
2021/03/22 11:09:16;;;;;;;;;;;7.50;84.60;;;;;;5035318;28;20281;-86
2021/03/22 11:11:41;;;;;;;;;;;7.60;84.20;;;;;;5053427;28;19928;-86
2021/03/22 11:14:10;;;;;;;;;;;7.50;85.00;;;;;;5053645;28;19905;-87
2021/03/22 11:16:37;;;;;;;;;;;7.50;85.50;;;;;;5036075;28;19905;-86
2021/03/22 11:19:14;;;;;;;;;;;7.40;86.20;;;;;;5034980;28;19927;-86
2021/03/22 11:21:39;;;;;;;;;;;7.40;86.60;;;;;;5035444;28;20292;-86
2021/03/22 11:24:05;;;;;;;;;;;7.30;86.60;;;;;;5036340;28;19905;-86
2021/03/22 11:26:31;;;;;;;;;;;7.20;87.20;;;;;;5035368;28;19931;-86
2021/03/22 11:29:16;;;;;;;;;;;7.20;87.30;;;;;;5034890;28;19905;-86
2021/03/22 11:31:43;;;;;;;;;;;7.20;87.50;;;;;;5034892;28;19916;-86
2021/03/22 11:34:14;;;;;;;;;;;7.10;87.70;;;;;;5035274;28;19909;-85
2021/03/22 11:36:42;;;;;;;;;;;7.20;87.80;;;;;;5053377;28;20349;-86
2021/03/22 11:39:13;;;;;;;;;;;7.10;88.10;;;;;;5035182;28;20419;-86
2021/03/22 11:41:41;;;;;;;;;;;7.20;88.00;;;;;;5035310;28;19905;-86
2021/03/22 11:44:15;;;;;;;;;;;7.20;87.90;;;;;;5035223;28;19904;-87
2021/03/22 11:46:42;;;;;;;;;;;7.30;87.70;;;;;;5034310;28;19905;-86
2021/03/22 11:49:27;;;;;;;;;;;7.30;87.10;;;;;;5034628;28;19909;-86
2021/03/22 11:51:53;;;;;;;;;;;7.40;86.00;;;;;;5052827;28;19974;-86
2021/03/22 11:54:18;;;;;;;;;;;7.40;85.60;;;;;;5052900;28;20361;-87
2021/03/22 11:56:56;;;;;;;;;;;7.40;85.10;;;;;;5034871;28;19904;-86
2021/03/22 11:59:24;;;;;;;;;;;7.40;85.20;;;;;;5034570;28;19928;-85
2021/03/22 12:02:01;;;;;;;;;;;7.40;85.30;;;;;;5052682;28;20361;-86
2021/03/22 12:04:27;;;;;;;;;;;7.40;85.30;;;;;;5035225;28;19908;-86
2021/03/22 12:06:57;;;;;;;;;;;7.40;85.20;;;;;;5051521;28;19905;-86
2021/03/22 12:09:23;;;;;;;;;;;7.40;85.50;;;;;;5052377;28;19909;-86
2021/03/22 12:11:50;;;;;;;;;;;7.40;85.50;;;;;;5052543;28;19913;-86
2021/03/22 12:14:15;;;;;;;;;;;7.40;85.00;;;;;;5052651;28;19905;-86
2021/03/22 12:16:41;;;;;;;;;;;7.40;84.80;;;;;;5034769;28;19943;-86
2021/03/22 12:19:13;;;;;;;;;;;7.40;84.40;;;;;;5052293;28;20346;-85
2021/03/22 12:21:38;;;;;;;;;;;7.40;84.40;;;;;;5034531;28;19924;-86
2021/03/22 12:24:04;;;;;;;;;;;7.40;84.20;;;;;;5052408;28;20261;-86
2021/03/22 12:26:31;;;;;;;;;;;7.40;84.70;;;;;;5052456;28;20389;-86
2021/03/22 12:28:57;;;;;;;;;;;7.40;84.30;;;;;;5034129;28;19911;-86
2021/03/22 12:31:42;;;;;;;;;;;7.40;83.90;;;;;;5052177;28;19908;-86
2021/03/22 12:34:09;;;;;;;;;;;7.40;82.80;;;;;;5034648;28;19948;-86
2021/03/22 12:36:37;;;;;;;;;;;7.40;82.90;;;;;;5052395;28;20287;-86
2021/03/22 12:39:11;;;;;;;;;;;7.50;83.30;;;;;;5034105;28;19912;-86
2021/03/22 12:41:36;;;;;;;;;;;7.50;82.90;;;;;;5034586;28;19947;-87
2021/03/22 12:44:03;;;;;;;;;;;7.50;83.20;;;;;;5052310;28;19905;-86
2021/03/22 12:46:29;;;;;;;;;;;7.60;84.00;;;;;;5034353;28;20365;-85
2021/03/22 12:48:55;;;;;;;;;;;7.50;84.40;;;;;;5034185;28;19908;-86
2021/03/22 12:51:20;;;;;;;;;;;7.50;84.90;;;;;;5034324;28;19935;-86
2021/03/22 12:53:46;;;;;;;;;;;7.60;85.60;;;;;;5034409;28;19905;-86
2021/03/22 12:56:13;;;;;;;;;;;7.50;85.50;;;;;;5034344;28;19911;-86
2021/03/22 12:58:38;;;;;;;;;;;7.50;85.60;;;;;;5037812;28;19958;-85
2021/03/22 13:01:05;;;;;;;;;;;7.50;86.00;;;;;;5055424;28;19905;-86
2021/03/22 13:03:31;;;;;;;;;;;7.50;86.00;;;;;;5037856;28;19904;-85
2021/03/22 13:05:56;;;;;;;;;;;7.50;86.30;;;;;;5038369;28;19912;-86
2021/03/22 13:08:23;;;;;;;;;;;7.50;85.60;;;;;;5055953;28;19905;-86
2021/03/22 13:10:49;;;;;;;;;;;7.60;85.10;;;;;;5055206;28;19909;-86
2021/03/22 13:13:14;;;;;;;;;;;7.40;85.00;;;;;;5037819;28;19959;-86
2021/03/22 13:15:51;;;;;;;;;;;7.50;85.20;;;;;;5037898;28;19926;-86
2021/03/22 13:18:16;;;;;;;;;;;7.50;85.30;;;;;;5038294;28;19905;-86
2021/03/22 13:20:43;;;;;;;;;;;7.40;85.70;;;;;;5037088;28;19930;-86
2021/03/22 13:23:09;;;;;;;;;;;7.50;86.70;;;;;;5038388;28;19956;-87
2021/03/22 13:25:35;;;;;;;;;;;7.50;86.30;;;;;;5037834;28;19905;-87
2021/03/22 13:28:01;;;;;;;;;;;7.50;86.60;;;;;;5037774;28;20010;-87
2021/03/22 13:30:26;;;;;;;;;;;7.50;87.00;;;;;;5037102;28;20007;-87
2021/03/22 13:32:52;;;;;;;;;;;7.50;87.10;;;;;;5055624;28;19989;-87
2021/03/22 13:35:25;;;;;;;;;;;7.50;86.70;;;;;;5055438;28;19905;-87
2021/03/22 13:37:50;;;;;;;;;;;7.50;86.90;;;;;;5055419;28;19982;-87
2021/03/22 13:40:17;;;;;;;;;;;7.50;86.70;;;;;;5053669;28;20349;-87
2021/03/22 13:42:42;;;;;;;;;;;7.50;86.80;;;;;;5037183;28;19919;-87
2021/03/22 13:45:11;;;;;;;;;;;7.50;86.50;;;;;;5037400;28;20007;-86
2021/03/22 13:47:37;;;;;;;;;;;7.50;86.50;;;;;;5055308;28;19905;-87
2021/03/22 13:50:02;;;;;;;;;;;7.50;86.30;;;;;;5054601;28;19999;-86
2021/03/22 13:52:29;;;;;;;;;;;7.50;86.80;;;;;;5037376;28;20266;-87
2021/03/22 13:54:55;;;;;;;;;;;7.60;86.70;;;;;;5055285;28;20017;-87
2021/03/22 13:57:21;;;;;;;;;;;7.60;86.90;;;;;;5037437;28;19909;-87
2021/03/22 13:59:46;;;;;;;;;;;7.60;86.80;;;;;;5037019;28;20355;-87
2021/03/22 14:02:13;;;;;;;;;;;7.60;86.10;;;;;;5037841;28;19904;-87
2021/03/22 14:04:38;;;;;;;;;;;7.70;86.20;;;;;;5055470;28;19908;-87
2021/03/22 14:07:04;;;;;;;;;;;7.70;85.90;;;;;;5053863;28;19966;-87
2021/03/22 14:09:30;;;;;;;;;;;7.70;86.20;;;;;;5035702;28;19909;-87
2021/03/22 14:11:55;;;;;;;;;;;7.70;85.50;;;;;;5053657;28;19909;-87
2021/03/22 14:14:21;;;;;;;;;;;7.70;85.40;;;;;;5036932;28;19927;-87
2021/03/22 14:16:46;;;;;;;;;;;7.80;85.00;;;;;;5036884;28;19904;-86
2021/03/22 14:19:12;;;;;;;;;;;7.70;85.20;;;;;;5054124;28;19908;-87
2021/03/22 14:21:38;;;;;;;;;;;7.80;84.90;;;;;;5036703;28;20426;-87
2021/03/22 14:24:03;;;;;;;;;;;7.80;85.20;;;;;;5036808;28;19905;-87
2021/03/22 14:26:29;;;;;;;;;;;7.80;85.60;;;;;;5036616;28;19911;-87
2021/03/22 14:28:54;;;;;;;;;;;7.70;86.60;;;;;;5036168;28;19927;-87
2021/03/22 14:31:26;;;;;;;;;;;7.70;86.90;;;;;;5036593;28;20367;-87
2021/03/22 14:33:54;;;;;;;;;;;7.60;87.50;;;;;;5036630;28;19905;-87
2021/03/22 14:36:20;;;;;;;;;;;7.70;88.00;;;;;;5054700;28;19959;-87
2021/03/22 14:38:46;;;;;;;;;;;7.60;88.50;;;;;;5036374;28;19904;-87
2021/03/22 14:41:11;;;;;;;;;;;7.60;88.30;;;;;;5036247;28;19943;-86
2021/03/22 14:43:38;;;;;;;;;;;7.60;88.30;;;;;;5036670;28;19905;-86
2021/03/22 14:46:04;;;;;;;;;;;7.70;87.90;;;;;;5036333;28;19905;-87